This is the latest recevied weather packets stored in our database for station/object KG7BDA. If no packets are shown the sender has not sent any weather packets the latest 1 day(s).
| Time | Temp. | Humidity | Pressure | Rain* | Wind** | Luminosity | Snow |
|---|---|---|---|---|---|---|---|
| 1778000401 | 17.78° C | 40% | 1011.7 hPa | 0 mm | 0 m/s | - | - |
| 1778000240 | 17.78° C | 40% | 1011.7 hPa | 0 mm | 0 m/s | - | - |
| 1777999880 | 17.78° C | 40% | 1011.7 hPa | 0 mm | 1.79 m/s, 165° | - | - |
| 1777999521 | 17.22° C | 42% | 1011.6 hPa | 0 mm | 1.79 m/s, 186° | - | - |
| 1777999373 | 17.22° C | 43% | 1011.7 hPa | 0 mm | 1.79 m/s, 182° | - | - |
| 1777999161 | 17.22° C | 43% | 1011.7 hPa | 0 mm | 1.79 m/s, 182° | - | - |
| 1777998800 | 16.67° C | 42% | 1011.6 hPa | 0 mm | 2.68 m/s, 199° | - | - |
| 1777998440 | 16.67° C | 43% | 1011.5 hPa | 0 mm | 1.34 m/s, 135° | - | - |
| 1777998080 | 16.11° C | 46% | 1011.6 hPa | 0 mm | 2.24 m/s, 187° | - | - |
| 1777997720 | 16.11° C | 45% | 1011.6 hPa | 0 mm | 2.68 m/s, 172° | - | - |
| 1777997360 | 15.56° C | 45% | 1011.4 hPa | 0 mm | 3.13 m/s, 210° | - | - |
| 1777997000 | 15.56° C | 45% | 1011.4 hPa | 0 mm | 3.13 m/s, 186° | - | - |
| 1777996641 | 15° C | 47% | 1011.4 hPa | 0 mm | 2.68 m/s, 195° | - | - |
| 1777996280 | 15° C | 46% | 1011.4 hPa | 0 mm | 2.68 m/s, 201° | - | - |
| 1777995920 | 15° C | 46% | 1011.4 hPa | 0 mm | 2.24 m/s, 198° | - | - |
| 1777995560 | 15° C | 48% | 1011.4 hPa | 0 mm | 2.24 m/s, 199° | - | - |
| 1777995200 | 15° C | 49% | 1011.4 hPa | 0 mm | 1.79 m/s, 185° | - | - |
| 1777994840 | 15° C | 47% | 1011.4 hPa | 0 mm | 2.24 m/s, 200° | - | - |
| 1777994480 | 15° C | 46% | 1011.5 hPa | 0 mm | 1.79 m/s, 137° | - | - |
| 1777994121 | 15.56° C | 44% | 1011.5 hPa | 0 mm | 1.79 m/s, 204° | - | - |
| 1777993760 | 15.56° C | 46% | 1011.5 hPa | 0 mm | 1.34 m/s, 189° | - | - |
| 1777993502 | 15° C | 45% | 1011.5 hPa | 0 mm | 1.34 m/s, 162° | - | - |
| 1777993400 | 15° C | 45% | 1011.5 hPa | 0 mm | 1.34 m/s, 162° | - | - |
| 1777993046 | 15° C | 45% | 1011.4 hPa | 0 mm | 0 m/s | - | - |
| 1777992680 | 15° C | 48% | 1011.2 hPa | 0 mm | 0.45 m/s, 171° | - | - |
* Rain latest hour (hover to see other rain measurements)
** Current wind speed in m/s (hover to see current wind gust speed)